createdAt,value
2017-05-16T00:00:14.480Z,18.49
2017-05-16T00:01:27.273Z,18.54
2017-05-16T00:02:40.065Z,18.56
2017-05-16T00:03:52.857Z,18.46
2017-05-16T00:05:05.157Z,18.51
2017-05-16T00:06:17.949Z,18.5
2017-05-16T00:07:30.740Z,18.41
2017-05-16T00:08:43.526Z,18.46
2017-05-16T00:09:55.825Z,18.42
2017-05-16T00:11:08.912Z,18.42
2017-05-16T00:12:20.735Z,18.42
2017-05-16T00:13:33.523Z,18.39
2017-05-16T00:14:45.852Z,18.49
2017-05-16T00:15:58.636Z,18.41
2017-05-16T00:17:11.623Z,18.41
2017-05-16T00:18:24.415Z,18.39
2017-05-16T00:19:37.266Z,18.44
2017-05-16T00:20:50.077Z,18.39
2017-05-16T00:22:03.171Z,18.39
2017-05-16T00:23:15.979Z,18.5
2017-05-16T00:24:28.281Z,18.53
2017-05-16T00:25:41.063Z,18.51
2017-05-16T00:26:53.848Z,18.51
2017-05-16T00:28:06.631Z,18.66
2017-05-16T00:29:19.419Z,18.59
2017-05-16T00:30:32.206Z,18.47
2017-05-16T00:31:44.992Z,18.5
2017-05-16T00:32:57.304Z,18.39
2017-05-16T00:34:10.154Z,18.41
2017-05-16T00:35:22.942Z,18.39
2017-05-16T00:36:35.725Z,18.38
2017-05-16T00:37:48.577Z,18.35
2017-05-16T00:39:01.565Z,18.34
2017-05-16T00:40:13.861Z,18.25
2017-05-16T00:41:26.643Z,18.42
2017-05-16T00:42:39.429Z,18.39
2017-05-16T00:43:51.780Z,18.31
2017-05-16T00:45:04.565Z,18.35
2017-05-16T00:46:16.864Z,18.2
2017-05-16T00:47:29.175Z,18.25
2017-05-16T00:48:41.967Z,18.21
2017-05-16T00:49:54.959Z,18.21
2017-05-16T00:51:07.745Z,18.23
2017-05-16T00:52:20.537Z,18.23
2017-05-16T00:53:32.850Z,18.34
2017-05-16T00:54:45.633Z,18.17
2017-05-16T00:55:57.932Z,18.32
2017-05-16T00:57:10.716Z,18.25
2017-05-16T00:58:23.509Z,18.14
2017-05-16T00:59:36.312Z,18.07
2017-05-16T01:00:49.099Z,17.99
2017-05-16T01:02:01.882Z,17.92
2017-05-16T01:03:14.673Z,18.02
2017-05-16T01:04:27.466Z,18.01
2017-05-16T01:05:40.521Z,17.94
2017-05-16T01:06:52.956Z,17.95
2017-05-16T01:08:05.882Z,17.91
2017-05-16T01:09:18.320Z,17.96
2017-05-16T01:10:31.260Z,18.01
2017-05-16T01:11:44.382Z,17.92
2017-05-16T01:12:57.309Z,17.98
2017-05-16T01:14:10.241Z,18.01
2017-05-16T01:15:23.171Z,17.98
2017-05-16T01:16:36.347Z,18.01
2017-05-16T01:17:49.271Z,18.02
2017-05-16T01:19:02.205Z,18.01
2017-05-16T01:20:14.642Z,18.02
2017-05-16T01:21:27.574Z,17.95
2017-05-16T01:22:40.259Z,17.84
2017-05-16T01:23:53.191Z,17.92
2017-05-16T01:25:05.629Z,17.87
2017-05-16T01:26:18.062Z,17.77
2017-05-16T01:27:31.234Z,17.7
2017-05-16T01:28:44.159Z,17.7
2017-05-16T01:29:57.103Z,17.71
2017-05-16T01:31:10.043Z,17.68
2017-05-16T01:32:22.476Z,17.66
2017-05-16T01:33:35.601Z,17.76
2017-05-16T01:34:48.538Z,17.57
2017-05-16T01:36:01.470Z,17.6
2017-05-16T01:37:13.904Z,17.66
2017-05-16T01:38:26.588Z,17.71
2017-05-16T01:39:38.542Z,17.66
2017-05-16T01:40:51.471Z,17.6
2017-05-16T01:42:04.327Z,17.74
2017-05-16T01:43:16.675Z,17.74
2017-05-16T01:44:43.533Z,17.7
2017-05-16T01:45:56.314Z,17.73
2017-05-16T01:47:09.105Z,17.71
2017-05-16T01:48:21.884Z,17.73
2017-05-16T01:49:34.676Z,17.71
2017-05-16T01:50:47.464Z,17.68
2017-05-16T01:51:59.776Z,17.62
2017-05-16T01:53:12.082Z,17.58
2017-05-16T01:54:24.862Z,17.53
2017-05-16T01:55:37.666Z,17.57
2017-05-16T01:56:50.453Z,17.53
2017-05-16T01:58:03.243Z,17.55
2017-05-16T01:59:15.553Z,17.54
2017-05-16T02:00:28.058Z,17.58
2017-05-16T02:01:40.852Z,17.6
2017-05-16T02:02:53.159Z,17.57
2017-05-16T02:04:06.007Z,17.51
2017-05-16T02:05:18.315Z,17.66
2017-05-16T02:06:31.098Z,17.66
2017-05-16T02:07:43.951Z,17.68
2017-05-16T02:08:56.758Z,17.63
2017-05-16T02:10:09.552Z,17.58
2017-05-16T02:11:22.398Z,17.71
2017-05-16T02:12:35.191Z,17.66
2017-05-16T02:13:47.978Z,17.7
2017-05-16T02:15:00.772Z,17.62
2017-05-16T02:16:13.851Z,17.63
2017-05-16T02:17:26.649Z,17.71
2017-05-16T02:18:38.960Z,17.68
2017-05-16T02:19:51.771Z,17.71
2017-05-16T02:21:04.576Z,17.63
2017-05-16T02:22:17.082Z,17.74
2017-05-16T02:23:29.870Z,17.74
2017-05-16T02:24:42.657Z,17.76
2017-05-16T02:25:55.440Z,17.68
2017-05-16T02:27:08.425Z,17.7
2017-05-16T02:28:21.219Z,17.71
2017-05-16T02:29:34.010Z,17.76
2017-05-16T02:30:45.830Z,17.86
2017-05-16T02:31:58.615Z,17.8
2017-05-16T02:33:11.604Z,17.92
2017-05-16T02:34:24.383Z,17.8
2017-05-16T02:35:37.182Z,17.84
2017-05-16T02:36:49.970Z,17.73
2017-05-16T02:38:02.762Z,17.79
2017-05-16T02:39:15.554Z,17.74
2017-05-16T02:40:28.373Z,17.76
2017-05-16T02:41:41.171Z,17.58
2017-05-16T02:42:53.968Z,17.7
2017-05-16T02:44:06.765Z,17.65
2017-05-16T02:45:19.551Z,17.6
2017-05-16T02:46:32.329Z,17.6
2017-05-16T02:47:45.119Z,17.77
2017-05-16T02:48:58.114Z,17.74
2017-05-16T02:50:10.897Z,17.76
2017-05-16T02:51:23.679Z,17.76
2017-05-16T02:52:36.472Z,17.73
2017-05-16T02:53:49.265Z,17.68
2017-05-16T02:55:02.253Z,17.62
2017-05-16T02:56:15.035Z,17.7
2017-05-16T02:57:27.815Z,17.84
2017-05-16T02:58:40.600Z,17.83
2017-05-16T02:59:53.588Z,17.79
2017-05-16T03:01:06.442Z,17.77
2017-05-16T03:02:19.368Z,17.79
2017-05-16T03:03:32.295Z,17.87
2017-05-16T03:04:45.219Z,17.86
2017-05-16T03:05:58.343Z,17.84
2017-05-16T03:07:10.767Z,17.92
2017-05-16T03:08:23.694Z,17.79
2017-05-16T03:09:36.122Z,17.92
2017-05-16T03:10:48.551Z,17.87
2017-05-16T03:12:01.465Z,17.86
2017-05-16T03:13:14.385Z,17.91
2017-05-16T03:14:27.348Z,17.92
2017-05-16T03:15:40.292Z,17.94
2017-05-16T03:17:06.968Z,17.86
2017-05-16T03:18:19.881Z,17.83
2017-05-16T03:19:31.824Z,17.96
2017-05-16T03:20:44.740Z,17.92
2017-05-16T03:21:57.960Z,17.91
2017-05-16T03:23:10.880Z,17.96
2017-05-16T03:24:23.796Z,17.94
2017-05-16T03:25:36.729Z,17.98
2017-05-16T03:26:49.648Z,18.01
2017-05-16T03:28:02.591Z,18.04
2017-05-16T03:29:15.627Z,17.95
2017-05-16T03:30:28.624Z,17.98
2017-05-16T03:31:41.591Z,18.02
2017-05-16T03:32:54.512Z,18.05
2017-05-16T03:34:06.943Z,18.05
2017-05-16T03:35:19.862Z,18.07
2017-05-16T03:36:31.809Z,18.02
2017-05-16T03:37:44.780Z,18.02
2017-05-16T03:38:57.903Z,18.04
2017-05-16T03:40:10.831Z,18.01
2017-05-16T03:41:23.750Z,17.94
2017-05-16T03:42:36.671Z,17.91
2017-05-16T03:43:49.792Z,17.84
2017-05-16T03:45:02.706Z,17.91
2017-05-16T03:46:15.023Z,17.91
2017-05-16T03:47:27.805Z,17.87
2017-05-16T03:48:40.584Z,17.92
2017-05-16T03:49:52.890Z,17.92
2017-05-16T03:51:05.679Z,17.86
2017-05-16T03:52:18.458Z,17.84
2017-05-16T03:53:30.762Z,17.84
2017-05-16T03:54:43.749Z,17.89
2017-05-16T03:55:56.534Z,17.84
2017-05-16T03:57:09.315Z,17.84
2017-05-16T03:58:22.106Z,17.68
2017-05-16T03:59:34.887Z,17.7
2017-05-16T04:00:47.667Z,17.73
2017-05-16T04:02:00.457Z,17.63
2017-05-16T04:03:13.243Z,17.73
2017-05-16T04:04:26.025Z,17.7
2017-05-16T04:05:52.878Z,17.57
2017-05-16T04:07:05.663Z,17.51
2017-05-16T04:08:18.443Z,17.46
2017-05-16T04:09:31.220Z,17.45
2017-05-16T04:10:43.822Z,17.45
2017-05-16T04:11:56.600Z,17.4
2017-05-16T04:13:09.381Z,17.43
2017-05-16T04:14:22.159Z,17.47
2017-05-16T04:15:34.949Z,17.4
2017-05-16T04:16:47.929Z,17.33
2017-05-16T04:18:00.712Z,17.33
2017-05-16T04:19:13.488Z,17.36
2017-05-16T04:20:25.780Z,17.35
2017-05-16T04:21:38.564Z,17.33
2017-05-16T04:22:51.344Z,17.33
2017-05-16T04:24:04.124Z,17.33
2017-05-16T04:25:16.427Z,17.33
2017-05-16T04:26:28.726Z,17.24
2017-05-16T04:27:41.506Z,17.33
2017-05-16T04:28:53.809Z,17.36
2017-05-16T04:30:06.590Z,17.32
2017-05-16T04:31:19.371Z,17.25
2017-05-16T04:32:31.868Z,17.28
2017-05-16T04:33:44.680Z,17.32
2017-05-16T04:34:57.460Z,17.3
2017-05-16T04:36:10.243Z,17.35
2017-05-16T04:37:22.542Z,17.36
2017-05-16T04:38:34.844Z,17.36
2017-05-16T04:39:47.624Z,17.43
2017-05-16T04:40:59.922Z,17.36
2017-05-16T04:42:12.709Z,17.36
2017-05-16T04:43:25.489Z,17.33
2017-05-16T04:44:38.268Z,17.38
2017-05-16T04:45:51.053Z,17.4
2017-05-16T04:47:03.832Z,17.42
2017-05-16T04:48:16.609Z,17.47
2017-05-16T04:49:29.686Z,17.4
2017-05-16T04:50:42.468Z,17.42
2017-05-16T04:51:55.251Z,17.43
2017-05-16T04:53:07.546Z,17.43
2017-05-16T04:54:20.041Z,17.51
2017-05-16T04:55:32.343Z,17.49
2017-05-16T04:56:45.122Z,17.46
2017-05-16T04:57:57.905Z,17.55
2017-05-16T04:59:10.685Z,17.51
2017-05-16T05:00:23.464Z,17.57
2017-05-16T05:01:36.242Z,17.54
2017-05-16T05:02:49.021Z,17.54
2017-05-16T05:04:01.326Z,17.49
2017-05-16T05:05:13.628Z,17.6
2017-05-16T05:06:25.926Z,17.6
2017-05-16T05:07:38.221Z,17.57
2017-05-16T05:08:50.998Z,17.57
2017-05-16T05:10:03.778Z,17.62
2017-05-16T05:11:15.597Z,17.55
2017-05-16T05:12:27.905Z,17.71
2017-05-16T05:13:40.202Z,17.71
2017-05-16T05:14:52.984Z,17.63
2017-05-16T05:16:05.845Z,17.58
2017-05-16T05:17:18.768Z,17.62
2017-05-16T05:18:31.192Z,17.49
2017-05-16T05:19:43.688Z,17.58
2017-05-16T05:20:56.750Z,17.63
2017-05-16T05:22:23.830Z,17.54
2017-05-16T05:23:36.892Z,17.49
2017-05-16T05:24:49.450Z,17.54
2017-05-16T05:26:02.510Z,17.39
2017-05-16T05:27:14.772Z,17.36
2017-05-16T05:28:27.830Z,17.33
2017-05-16T05:29:40.892Z,17.36
2017-05-16T05:30:53.952Z,17.32
2017-05-16T05:32:07.012Z,17.3
2017-05-16T05:33:19.070Z,17.18
2017-05-16T05:34:32.131Z,17.18
2017-05-16T05:35:45.186Z,17.18
2017-05-16T05:36:58.247Z,17.18
2017-05-16T05:38:11.306Z,17.36
2017-05-16T05:39:23.879Z,17.24
2017-05-16T05:40:35.944Z,17.21
2017-05-16T05:41:49.002Z,17.17
2017-05-16T05:43:01.868Z,17.17
2017-05-16T05:44:14.925Z,17.15
2017-05-16T05:45:27.981Z,17.09
2017-05-16T05:46:40.038Z,17.18
2017-05-16T05:47:53.098Z,17.18
2017-05-16T05:49:05.654Z,17.17
2017-05-16T05:50:18.710Z,17.17
2017-05-16T05:51:31.769Z,17.17
2017-05-16T05:52:44.332Z,17.07
2017-05-16T05:53:57.393Z,17.1
2017-05-16T05:55:09.884Z,17.2
2017-05-16T05:56:22.805Z,17.18
2017-05-16T05:57:35.722Z,17.09
2017-05-16T05:58:48.637Z,17.21
2017-05-16T06:00:01.558Z,17.2
2017-05-16T06:01:13.964Z,17.14
2017-05-16T06:02:26.861Z,17.24
2017-05-16T06:03:39.773Z,17.17
2017-05-16T06:04:52.874Z,17.12
2017-05-16T06:06:05.774Z,17.17
2017-05-16T06:07:17.692Z,17.1
2017-05-16T06:08:30.585Z,17.05
2017-05-16T06:09:43.479Z,17.02
2017-05-16T06:10:56.677Z,17.05
2017-05-16T06:12:09.083Z,17.03
2017-05-16T06:13:21.491Z,16.99
2017-05-16T06:14:34.386Z,17.06
2017-05-16T06:15:46.997Z,17.03
2017-05-16T06:16:59.897Z,17.09
2017-05-16T06:18:12.793Z,17.02
2017-05-16T06:19:25.196Z,17.1
2017-05-16T06:20:38.092Z,17.15
2017-05-16T06:21:50.798Z,17.1
2017-05-16T06:23:03.697Z,17.18
2017-05-16T06:24:15.612Z,17.14
2017-05-16T06:25:28.020Z,17.22
2017-05-16T06:26:40.917Z,17.14
2017-05-16T06:27:53.815Z,17.14
2017-05-16T06:29:06.710Z,17.17
2017-05-16T06:30:18.627Z,17.05
2017-05-16T06:31:31.526Z,17.05
2017-05-16T06:32:44.623Z,17.02
2017-05-16T06:33:57.529Z,16.95
2017-05-16T06:35:09.937Z,16.99
2017-05-16T06:36:22.833Z,17.05
2017-05-16T06:37:35.550Z,16.96
2017-05-16T06:38:48.447Z,17.05
2017-05-16T06:40:00.856Z,17
2017-05-16T06:41:13.280Z,16.99
2017-05-16T06:42:26.175Z,17.05
2017-05-16T06:43:39.377Z,17.02
2017-05-16T06:44:52.283Z,17.06
2017-05-16T06:46:05.193Z,16.99
2017-05-16T06:47:17.619Z,16.99
2017-05-16T06:48:30.537Z,17
2017-05-16T06:49:42.964Z,16.95
2017-05-16T06:50:55.881Z,16.98
2017-05-16T06:52:08.797Z,17.02
2017-05-16T06:53:21.719Z,17.09
2017-05-16T06:54:34.631Z,16.99
2017-05-16T06:55:47.058Z,17.05
2017-05-16T06:56:59.973Z,17.06
2017-05-16T06:58:12.400Z,16.98
2017-05-16T06:59:24.534Z,17.05
2017-05-16T07:00:37.448Z,17
2017-05-16T07:01:50.368Z,17.03
2017-05-16T07:03:02.792Z,17.02
2017-05-16T07:04:15.213Z,16.98
2017-05-16T07:05:28.137Z,16.87
2017-05-16T07:06:40.566Z,16.87
2017-05-16T07:07:53.480Z,16.92
2017-05-16T07:09:05.917Z,16.82
2017-05-16T07:10:19.133Z,16.9
2017-05-16T07:11:32.078Z,16.92
2017-05-16T07:12:44.998Z,16.98
2017-05-16T07:13:57.910Z,16.88
2017-05-16T07:15:10.340Z,16.85
2017-05-16T07:16:22.278Z,16.77
2017-05-16T07:17:35.193Z,16.78
2017-05-16T07:18:48.110Z,16.88
2017-05-16T07:20:01.026Z,16.9
2017-05-16T07:21:13.656Z,16.85
2017-05-16T07:22:26.575Z,16.7
2017-05-16T07:23:39.499Z,16.69
2017-05-16T07:24:52.420Z,16.67
2017-05-16T07:26:05.339Z,16.72
2017-05-16T07:27:18.558Z,16.78
2017-05-16T07:28:31.474Z,16.7
2017-05-16T07:29:43.899Z,16.73
2017-05-16T07:30:56.745Z,16.73
2017-05-16T07:32:09.041Z,16.81
2017-05-16T07:33:21.339Z,16.8
2017-05-16T07:34:33.643Z,16.77
2017-05-16T07:35:45.947Z,16.72
2017-05-16T07:36:58.730Z,16.73
2017-05-16T07:38:11.516Z,16.67
2017-05-16T07:39:23.823Z,16.63
2017-05-16T07:40:36.606Z,16.67
2017-05-16T07:41:48.904Z,16.77
2017-05-16T07:43:01.199Z,16.69
2017-05-16T07:44:13.501Z,16.8
2017-05-16T07:45:25.325Z,16.62
2017-05-16T07:46:37.200Z,16.7
2017-05-16T07:47:49.984Z,16.75
2017-05-16T07:49:03.065Z,16.69
2017-05-16T07:50:14.886Z,16.67
2017-05-16T07:51:27.665Z,16.69
2017-05-16T07:52:39.967Z,16.7
2017-05-16T07:53:52.270Z,16.7
2017-05-16T07:55:05.356Z,16.77
2017-05-16T07:56:18.133Z,16.77
2017-05-16T07:57:30.430Z,16.81
2017-05-16T07:58:43.212Z,16.92
2017-05-16T07:59:55.999Z,16.87
2017-05-16T08:01:08.783Z,16.96
2017-05-16T08:02:21.563Z,16.87
2017-05-16T08:03:33.864Z,16.8
2017-05-16T08:04:46.657Z,16.77
2017-05-16T08:05:59.444Z,16.73
2017-05-16T08:07:11.743Z,16.69
2017-05-16T08:08:24.524Z,16.69
2017-05-16T08:09:37.324Z,16.75
2017-05-16T08:10:50.308Z,16.85
2017-05-16T08:12:03.089Z,16.85
2017-05-16T08:13:15.873Z,16.85
2017-05-16T08:14:28.663Z,16.82
2017-05-16T08:15:41.452Z,16.8
2017-05-16T08:16:54.489Z,16.72
2017-05-16T08:18:07.282Z,16.69
2017-05-16T08:19:19.104Z,16.69
2017-05-16T08:20:31.472Z,16.77
2017-05-16T08:21:44.262Z,16.69
2017-05-16T08:22:57.045Z,16.69
2017-05-16T08:24:09.344Z,16.77
2017-05-16T08:25:22.137Z,16.77
2017-05-16T08:26:34.923Z,16.81
2017-05-16T08:27:48.010Z,16.75
2017-05-16T08:29:00.790Z,16.78
2017-05-16T08:30:13.627Z,16.7
2017-05-16T08:31:25.446Z,16.72
2017-05-16T08:32:52.304Z,16.75
2017-05-16T08:34:05.088Z,16.72
2017-05-16T08:35:17.877Z,16.78
2017-05-16T08:36:30.184Z,16.72
2017-05-16T08:37:43.182Z,16.69
2017-05-16T08:38:55.486Z,16.6
2017-05-16T08:40:08.271Z,16.7
2017-05-16T08:41:21.056Z,16.63
2017-05-16T08:42:33.843Z,16.73
2017-05-16T08:43:46.831Z,16.78
2017-05-16T08:44:59.613Z,16.82
2017-05-16T08:46:12.395Z,16.85
2017-05-16T08:47:25.184Z,16.81
2017-05-16T08:48:37.488Z,16.87
2017-05-16T08:49:50.275Z,16.92
2017-05-16T08:51:03.068Z,16.96
2017-05-16T08:52:15.373Z,16.91
2017-05-16T08:53:28.161Z,16.82
2017-05-16T08:54:40.669Z,16.9
2017-05-16T08:55:53.453Z,16.98
2017-05-16T08:57:05.758Z,17.03
2017-05-16T08:58:18.539Z,16.88
2017-05-16T08:59:31.325Z,16.88
2017-05-16T09:00:43.622Z,16.87
2017-05-16T09:01:55.939Z,16.96
2017-05-16T09:03:07.764Z,16.98
2017-05-16T09:04:19.583Z,16.92
2017-05-16T09:05:32.670Z,17.02
2017-05-16T09:06:44.972Z,16.92
2017-05-16T09:07:57.290Z,16.92
2017-05-16T09:09:09.595Z,16.96
2017-05-16T09:10:22.376Z,16.98
2017-05-16T09:11:35.356Z,16.98
2017-05-16T09:12:47.665Z,16.98
2017-05-16T09:14:00.444Z,17.02
2017-05-16T09:15:12.742Z,17
2017-05-16T09:16:25.821Z,16.87
2017-05-16T09:17:38.127Z,16.9
2017-05-16T09:18:50.914Z,16.88
2017-05-16T09:20:03.214Z,16.85
2017-05-16T09:21:15.996Z,16.98
2017-05-16T09:22:28.786Z,16.9
2017-05-16T09:23:41.578Z,16.92
2017-05-16T09:24:53.883Z,17
2017-05-16T09:26:06.670Z,16.98
2017-05-16T09:27:18.980Z,16.99
2017-05-16T09:28:31.769Z,17.02
2017-05-16T09:29:44.553Z,17.05
2017-05-16T09:30:57.327Z,17.09
2017-05-16T09:32:09.629Z,16.99
2017-05-16T09:33:22.621Z,17.05
2017-05-16T09:34:36.016Z,17.06
2017-05-16T09:35:48.794Z,17.17
2017-05-16T09:37:01.582Z,17.14
2017-05-16T09:38:13.884Z,17.14
2017-05-16T09:39:26.191Z,17.17
2017-05-16T09:40:38.972Z,17.14
2017-05-16T09:41:50.790Z,17.12
2017-05-16T09:43:03.593Z,17.05
2017-05-16T09:44:16.373Z,17.14
2017-05-16T09:45:29.229Z,17.14
2017-05-16T09:46:42.135Z,17.14
2017-05-16T09:47:54.550Z,17.2
2017-05-16T09:49:06.671Z,17.21
2017-05-16T09:50:18.585Z,17.18
2017-05-16T09:51:30.998Z,17.21
2017-05-16T09:52:43.912Z,17.33
2017-05-16T09:53:56.811Z,17.4
2017-05-16T09:55:09.419Z,17.38
2017-05-16T09:56:21.826Z,17.35
2017-05-16T09:57:34.742Z,17.36
2017-05-16T09:58:47.644Z,17.32
2017-05-16T10:00:00.541Z,17.36
2017-05-16T10:01:12.944Z,17.33
2017-05-16T10:02:25.347Z,17.38
2017-05-16T10:03:38.250Z,17.42
2017-05-16T10:04:51.152Z,17.38
2017-05-16T10:06:04.052Z,17.32
2017-05-16T10:07:15.972Z,17.42
2017-05-16T10:08:28.874Z,17.45
2017-05-16T10:09:41.771Z,17.46
2017-05-16T10:10:54.675Z,17.43
2017-05-16T10:12:07.092Z,17.46
2017-05-16T10:13:19.998Z,17.47
2017-05-16T10:14:31.427Z,17.46
2017-05-16T10:15:43.837Z,17.51
2017-05-16T10:16:56.732Z,17.47
2017-05-16T10:18:09.629Z,17.47
2017-05-16T10:19:22.545Z,17.47
2017-05-16T10:20:35.449Z,17.51
2017-05-16T10:21:48.055Z,17.53
2017-05-16T10:23:00.471Z,17.46
2017-05-16T10:24:12.887Z,17.49
2017-05-16T10:25:25.780Z,17.47
2017-05-16T10:26:38.684Z,17.62
2017-05-16T10:27:51.578Z,17.65
2017-05-16T10:29:04.474Z,17.68
2017-05-16T10:30:16.405Z,17.63
2017-05-16T10:31:29.300Z,17.66
2017-05-16T10:32:42.500Z,17.74
2017-05-16T10:33:54.911Z,17.62
2017-05-16T10:35:07.813Z,17.68
2017-05-16T10:36:19.720Z,17.66
2017-05-16T10:37:32.125Z,17.65
2017-05-16T10:38:44.322Z,17.7
2017-05-16T10:39:56.734Z,17.84
2017-05-16T10:41:09.145Z,17.8
2017-05-16T10:42:22.052Z,17.86
2017-05-16T10:43:34.661Z,17.76
2017-05-16T10:44:47.561Z,17.73
2017-05-16T10:46:00.457Z,17.74
2017-05-16T10:47:13.361Z,17.81
2017-05-16T10:48:26.259Z,17.76
2017-05-16T10:49:39.357Z,17.84
2017-05-16T10:50:51.276Z,17.87
2017-05-16T10:52:03.687Z,17.8
2017-05-16T10:53:16.097Z,17.91
2017-05-16T10:54:28.993Z,17.87
2017-05-16T10:55:41.892Z,17.87
2017-05-16T10:56:54.304Z,17.92
2017-05-16T10:58:07.204Z,17.98
2017-05-16T10:59:19.669Z,17.92
2017-05-16T11:00:32.763Z,17.89
2017-05-16T11:01:45.655Z,17.98
2017-05-16T11:02:58.556Z,18.05
2017-05-16T11:04:10.973Z,18.07
2017-05-16T11:05:24.179Z,18.09
2017-05-16T11:06:36.585Z,18.11
2017-05-16T11:07:49.002Z,18.16
2017-05-16T11:09:01.899Z,18.13
2017-05-16T11:10:13.816Z,18.13
2017-05-16T11:11:26.426Z,18.1
2017-05-16T11:12:38.832Z,18.1
2017-05-16T11:13:51.242Z,18.11
2017-05-16T11:15:03.177Z,18.1
2017-05-16T11:16:15.609Z,18.2
2017-05-16T11:17:28.528Z,18.23
2017-05-16T11:18:41.447Z,18.21
2017-05-16T11:19:53.874Z,18.21
2017-05-16T11:21:06.793Z,18.34
2017-05-16T11:22:19.220Z,18.23
2017-05-16T11:23:32.145Z,18.31
2017-05-16T11:24:45.062Z,18.41
2017-05-16T11:25:57.005Z,18.32
2017-05-16T11:27:09.630Z,18.38
2017-05-16T11:28:22.546Z,18.46
2017-05-16T11:29:35.467Z,18.57
2017-05-16T11:30:48.387Z,18.64
2017-05-16T11:32:00.818Z,18.65
2017-05-16T11:33:13.253Z,18.66
2017-05-16T11:34:26.167Z,18.82
2017-05-16T11:35:38.592Z,18.93
2017-05-16T11:36:51.016Z,18.87
2017-05-16T11:38:03.442Z,18.93
2017-05-16T11:39:15.929Z,18.93
2017-05-16T11:40:28.845Z,18.96
2017-05-16T11:41:41.274Z,19.07
2017-05-16T11:42:54.196Z,19.06
2017-05-16T11:44:07.318Z,19.17
2017-05-16T11:45:20.237Z,19.17
2017-05-16T11:46:32.660Z,19.24
2017-05-16T11:47:45.581Z,19.34
2017-05-16T11:48:58.698Z,19.32
2017-05-16T11:50:10.631Z,19.42
2017-05-16T11:51:23.605Z,19.46
2017-05-16T11:52:36.575Z,19.55
2017-05-16T11:53:49.493Z,19.53
2017-05-16T11:55:02.610Z,19.6
2017-05-16T11:56:15.525Z,19.64
2017-05-16T11:57:28.442Z,19.61
2017-05-16T11:58:40.870Z,19.62
2017-05-16T11:59:53.301Z,19.64
2017-05-16T12:01:05.726Z,19.62
2017-05-16T12:02:18.645Z,19.7
2017-05-16T12:03:31.082Z,19.62
2017-05-16T12:04:43.515Z,19.67
2017-05-16T12:05:55.755Z,19.64
2017-05-16T12:07:08.675Z,19.68
2017-05-16T12:08:21.592Z,19.67
2017-05-16T12:09:34.525Z,19.67
2017-05-16T12:10:47.484Z,19.83
2017-05-16T12:12:00.402Z,19.8
2017-05-16T12:13:12.832Z,19.7
2017-05-16T12:14:24.766Z,19.76
2017-05-16T12:15:37.207Z,19.83
2017-05-16T12:16:49.936Z,19.89
2017-05-16T12:18:02.358Z,19.82
2017-05-16T12:19:15.287Z,19.85
2017-05-16T12:20:28.205Z,19.87
2017-05-16T12:21:40.637Z,19.83
2017-05-16T12:22:53.555Z,19.82
2017-05-16T12:24:05.978Z,19.83
2017-05-16T12:25:18.895Z,19.82
2017-05-16T12:26:31.807Z,19.92
2017-05-16T12:27:45.024Z,19.98
2017-05-16T12:28:57.989Z,20.05
2017-05-16T12:30:10.912Z,19.89
2017-05-16T12:31:23.842Z,20
2017-05-16T12:32:36.964Z,19.95
2017-05-16T12:33:49.389Z,20.08
2017-05-16T12:35:01.325Z,20.04
2017-05-16T12:36:14.242Z,20.1
2017-05-16T12:37:27.159Z,20.17
2017-05-16T12:38:39.785Z,20.3
2017-05-16T12:39:52.219Z,20.34
2017-05-16T12:41:05.142Z,20.4
2017-05-16T12:42:18.065Z,20.35
2017-05-16T12:43:30.496Z,20.54
2017-05-16T12:44:43.421Z,20.51
2017-05-16T12:45:55.849Z,20.58
2017-05-16T12:47:08.778Z,20.56
2017-05-16T12:48:21.692Z,20.5
2017-05-16T12:49:34.131Z,20.5
2017-05-16T12:50:47.042Z,20.58
2017-05-16T12:51:59.964Z,20.53
2017-05-16T12:53:12.393Z,20.51
2017-05-16T12:54:25.669Z,20.56
2017-05-16T12:55:38.588Z,20.54
2017-05-16T12:56:51.505Z,20.46
2017-05-16T12:58:04.422Z,20.48
2017-05-16T12:59:16.862Z,20.53
2017-05-16T13:00:29.781Z,20.5
2017-05-16T13:01:42.699Z,20.5
2017-05-16T13:02:55.128Z,20.51
2017-05-16T13:04:07.557Z,20.54
2017-05-16T13:05:19.490Z,20.57
2017-05-16T13:06:32.415Z,20.56
2017-05-16T13:07:45.333Z,20.57
2017-05-16T13:08:58.253Z,20.66
2017-05-16T13:10:10.681Z,20.66
2017-05-16T13:11:23.162Z,20.71
2017-05-16T13:12:36.080Z,20.64
2017-05-16T13:13:48.513Z,20.64
2017-05-16T13:15:01.649Z,20.63
2017-05-16T13:16:14.565Z,20.71
2017-05-16T13:17:26.503Z,20.78
2017-05-16T13:18:39.437Z,20.82
2017-05-16T13:19:52.359Z,20.81
2017-05-16T13:21:05.481Z,20.79
2017-05-16T13:22:18.398Z,20.75
2017-05-16T13:23:30.335Z,20.79
2017-05-16T13:24:43.254Z,20.66
2017-05-16T13:25:56.177Z,20.71
2017-05-16T13:27:09.109Z,20.64
2017-05-16T13:28:21.549Z,20.66
2017-05-16T13:29:34.501Z,20.72
2017-05-16T13:30:47.459Z,20.69
2017-05-16T13:32:00.379Z,20.68
2017-05-16T13:33:12.859Z,20.71
2017-05-16T13:34:25.754Z,20.72
2017-05-16T13:35:38.653Z,20.79
2017-05-16T13:36:51.551Z,20.85
2017-05-16T13:38:03.959Z,20.88
2017-05-16T13:39:16.859Z,20.97
2017-05-16T13:40:29.815Z,20.81
2017-05-16T13:41:42.918Z,20.81
2017-05-16T13:42:55.741Z,20.88
2017-05-16T13:44:08.315Z,20.94
2017-05-16T13:45:20.844Z,21
2017-05-16T13:46:33.844Z,21.08
2017-05-16T13:47:47.083Z,21.15
2017-05-16T13:49:00.102Z,21.08
2017-05-16T13:50:12.508Z,21.15
2017-05-16T13:51:25.504Z,21.18
2017-05-16T13:52:38.550Z,21.22
2017-05-16T13:53:51.470Z,21.18
2017-05-16T13:55:04.537Z,21.21
2017-05-16T13:56:17.027Z,21.27
2017-05-16T13:57:30.083Z,21.33
2017-05-16T13:58:42.743Z,21.31
2017-05-16T13:59:55.925Z,21.4
2017-05-16T14:01:08.922Z,21.42
2017-05-16T14:02:21.923Z,21.48
2017-05-16T14:03:34.516Z,21.52
2017-05-16T14:04:48.005Z,21.61
2017-05-16T14:06:01.106Z,21.58
2017-05-16T14:07:12.620Z,21.56
2017-05-16T14:08:25.688Z,21.48
2017-05-16T14:09:38.305Z,21.58
2017-05-16T14:10:51.210Z,21.59
2017-05-16T14:12:04.117Z,21.61
2017-05-16T14:13:16.528Z,21.61
2017-05-16T14:14:29.436Z,21.66
2017-05-16T14:15:42.355Z,21.66
2017-05-16T14:16:55.275Z,21.81
2017-05-16T14:18:07.221Z,21.83
2017-05-16T14:19:19.658Z,21.81
2017-05-16T14:20:32.929Z,21.82
2017-05-16T14:21:45.849Z,21.77
2017-05-16T14:22:58.281Z,21.91
2017-05-16T14:24:10.230Z,21.9
2017-05-16T14:25:23.155Z,21.96
2017-05-16T14:26:36.087Z,21.94
2017-05-16T14:27:49.008Z,21.9
2017-05-16T14:29:00.455Z,21.89
2017-05-16T14:30:13.391Z,21.89
2017-05-16T14:31:26.460Z,21.85
2017-05-16T14:32:38.890Z,21.96
2017-05-16T14:33:51.810Z,21.89
2017-05-16T14:35:04.776Z,21.91
2017-05-16T14:36:17.696Z,21.91
2017-05-16T14:37:30.618Z,21.89
2017-05-16T14:38:43.538Z,21.96
2017-05-16T14:39:56.457Z,21.91
2017-05-16T14:41:09.384Z,21.81
2017-05-16T14:42:22.303Z,21.83
2017-05-16T14:43:35.225Z,21.73
2017-05-16T14:44:48.145Z,21.75
2017-05-16T14:46:00.570Z,21.79
2017-05-16T14:47:13.002Z,21.79
2017-05-16T14:48:25.629Z,21.79
2017-05-16T14:49:38.558Z,21.83
2017-05-16T14:50:51.479Z,21.81
2017-05-16T14:52:04.401Z,21.68
2017-05-16T14:53:17.319Z,21.71
2017-05-16T14:54:29.755Z,21.68
2017-05-16T14:55:42.678Z,21.58
2017-05-16T14:56:55.600Z,21.59
2017-05-16T14:58:08.571Z,21.56
2017-05-16T14:59:21.001Z,21.64
2017-05-16T15:00:33.843Z,21.63
2017-05-16T15:01:46.627Z,21.67
2017-05-16T15:02:58.928Z,21.74
2017-05-16T15:04:11.709Z,21.7
2017-05-16T15:05:24.489Z,21.7
2017-05-16T15:06:37.272Z,21.66
2017-05-16T15:07:49.576Z,21.67
2017-05-16T15:09:02.358Z,21.67
2017-05-16T15:10:15.144Z,21.67
2017-05-16T15:11:27.924Z,21.61
2017-05-16T15:12:40.706Z,21.56
2017-05-16T15:13:53.497Z,21.43
2017-05-16T15:15:06.280Z,21.37
2017-05-16T15:16:19.066Z,21.34
2017-05-16T15:17:31.366Z,21.33
2017-05-16T15:18:43.680Z,21.38
2017-05-16T15:19:56.462Z,21.37
2017-05-16T15:21:08.963Z,21.34
2017-05-16T15:22:21.745Z,21.33
2017-05-16T15:23:34.540Z,21.37
2017-05-16T15:24:46.841Z,21.43
2017-05-16T15:25:59.621Z,21.46
2017-05-16T15:27:12.404Z,21.42
2017-05-16T15:28:25.197Z,21.45
2017-05-16T15:29:37.976Z,21.45
2017-05-16T15:30:50.279Z,21.46
2017-05-16T15:32:02.782Z,21.42
2017-05-16T15:33:15.568Z,21.42
2017-05-16T15:34:28.355Z,21.51
2017-05-16T15:35:41.144Z,21.53
2017-05-16T15:36:53.443Z,21.58
2017-05-16T15:38:05.746Z,21.58
2017-05-16T15:39:18.042Z,21.7
2017-05-16T15:40:30.349Z,21.63